Scilly, United Kingdom
Current Conditions -  °F | °C
As of 4:20 PM on Friday 24 Oct 2014 (Local Time) from EGHE Reporting Station
Few Clouds Few Clouds  
Wind Chill: 57°   Ceiling: Unl
Heat Index: 57°   Visibility: 6mi
Dew Point: 50°   Wind: 14mph
Humidity: 77%   Direction: 290°WNW
Pressure: 30"   Gusts: NA
Location:  49.93°N, 6.31°W
Report Text: EGHE 241520Z 29012KT 9999 FEW020 14/10 Q1016
Loading
Personal Weather Stations






























Interactive Weather Map New forecast layout! Learn more

10-Day Weather Forecast

Advertisements
Track Severe Weather on mobile